createdAt,value
2023-10-31T00:02:13.808Z,101077.00
2023-10-31T00:04:41.047Z,101082.88
2023-10-31T00:07:08.415Z,101085.06
2023-10-31T00:09:35.586Z,101091.06
2023-10-31T00:12:02.939Z,101074.38
2023-10-31T00:14:31.634Z,101070.59
2023-10-31T00:17:02.580Z,101081.78
2023-10-31T00:19:29.980Z,101089.72
2023-10-31T00:21:57.260Z,101080.78
2023-10-31T00:24:24.510Z,101099.66
2023-10-31T00:26:52.194Z,101076.38
2023-10-31T00:29:19.726Z,101083.44
2023-10-31T00:31:46.991Z,101110.25
2023-10-31T00:34:14.277Z,101103.69
2023-10-31T00:36:41.506Z,101097.63
2023-10-31T00:39:08.785Z,101100.47
2023-10-31T00:41:35.975Z,101083.38
2023-10-31T00:44:03.572Z,101080.00
2023-10-31T00:46:31.074Z,101075.56
2023-10-31T00:48:58.676Z,101089.94
2023-10-31T00:51:25.919Z,101075.56
2023-10-31T00:53:53.248Z,101066.88
2023-10-31T00:56:20.629Z,101065.19
2023-10-31T00:58:48.018Z,101067.22
2023-10-31T01:01:15.832Z,101055.50
2023-10-31T01:03:43.499Z,101077.41
2023-10-31T01:06:10.934Z,101062.06
2023-10-31T01:08:38.264Z,101053.81
2023-10-31T01:11:05.483Z,101044.78
2023-10-31T01:13:32.818Z,101046.97
2023-10-31T01:16:00.131Z,101041.56
2023-10-31T01:18:27.466Z,101042.34
2023-10-31T01:20:54.708Z,101059.28
2023-10-31T01:23:22.088Z,101033.41
2023-10-31T01:25:49.276Z,101042.34
2023-10-31T01:28:17.051Z,101042.78
2023-10-31T01:30:44.285Z,101066.88
2023-10-31T01:33:12.091Z,101053.22
2023-10-31T01:35:39.434Z,101044.03
2023-10-31T01:38:07.253Z,101053.97
2023-10-31T01:40:34.571Z,101052.63
2023-10-31T01:43:01.910Z,101052.06
2023-10-31T01:45:29.270Z,101053.88
2023-10-31T01:47:56.643Z,101043.34
2023-10-31T01:50:23.981Z,101051.50
2023-10-31T01:52:51.600Z,101041.41
2023-10-31T01:55:19.041Z,101038.38
2023-10-31T01:57:46.467Z,101067.03
2023-10-31T02:00:14.299Z,101029.19
2023-10-31T02:02:45.342Z,101043.72
2023-10-31T02:05:12.681Z,101044.78
2023-10-31T02:07:39.937Z,101051.84
2023-10-31T02:10:07.575Z,101052.00
2023-10-31T02:12:38.489Z,101040.47
2023-10-31T02:15:06.890Z,101023.28
2023-10-31T02:17:34.102Z,101041.16
2023-10-31T02:20:01.375Z,101030.94
2023-10-31T02:22:28.839Z,101027.91
2023-10-31T02:24:56.139Z,101023.88
2023-10-31T02:27:23.315Z,101022.69
2023-10-31T02:29:50.625Z,101017.03
2023-10-31T02:32:17.927Z,101038.28
2023-10-31T02:34:48.164Z,101023.56
2023-10-31T02:37:15.547Z,101010.56
2023-10-31T02:39:43.196Z,101017.25
2023-10-31T02:42:10.540Z,101023.72
2023-10-31T02:44:37.784Z,101012.94
2023-10-31T02:47:05.407Z,101018.91
2023-10-31T02:49:32.675Z,101014.38
2023-10-31T02:51:59.879Z,101004.84
2023-10-31T02:54:27.122Z,101002.66
2023-10-31T02:56:54.480Z,101005.44
2023-10-31T02:59:21.690Z,101004.00
2023-10-31T03:01:49.096Z,101012.28
2023-10-31T03:04:16.432Z,101010.31
2023-10-31T03:06:44.400Z,100999.97
2023-10-31T03:09:11.666Z,101000.28
2023-10-31T03:11:38.870Z,101005.59
2023-10-31T03:14:06.242Z,101005.16
2023-10-31T03:16:34.132Z,101022.88
2023-10-31T03:19:02.689Z,101016.28
2023-10-31T03:21:30.094Z,101018.31
2023-10-31T03:23:57.270Z,101002.75
2023-10-31T03:26:24.541Z,101016.28
2023-10-31T03:28:51.840Z,101018.63
2023-10-31T03:31:19.270Z,101020.56
2023-10-31T03:33:46.556Z,101011.72
2023-10-31T03:36:13.916Z,101016.00
2023-10-31T03:38:41.317Z,101039.03
2023-10-31T03:41:09.285Z,101019.19
2023-10-31T03:43:37.037Z,101015.91
2023-10-31T03:46:05.649Z,101016.16
2023-10-31T03:48:33.049Z,101013.03
2023-10-31T03:51:00.577Z,101048.13
2023-10-31T03:53:27.765Z,101021.22
2023-10-31T03:55:55.016Z,101012.75
2023-10-31T03:58:23.171Z,100999.31
2023-10-31T04:00:50.503Z,101020.47
2023-10-31T04:03:17.804Z,101028.59
2023-10-31T04:05:45.376Z,101021.84
2023-10-31T04:08:12.744Z,101025.31
2023-10-31T04:10:40.135Z,101023.19
2023-10-31T04:13:07.331Z,100999.53
2023-10-31T04:15:36.065Z,101013.53
2023-10-31T04:18:03.519Z,101022.00
2023-10-31T04:20:30.838Z,101013.78
2023-10-31T04:22:58.095Z,101023.19
2023-10-31T04:25:25.704Z,101022.44
2023-10-31T04:27:52.864Z,101015.81
2023-10-31T04:30:20.065Z,101031.97
2023-10-31T04:32:47.429Z,101019.34
2023-10-31T04:35:14.741Z,101028.38
2023-10-31T04:37:41.906Z,101034.00
2023-10-31T04:40:09.808Z,101019.44
2023-10-31T04:42:37.124Z,101025.16
2023-10-31T04:45:04.617Z,101032.44
2023-10-31T04:47:34.760Z,101019.28
2023-10-31T04:50:02.274Z,101030.72
2023-10-31T04:52:29.535Z,101041.94
2023-10-31T04:54:56.813Z,101050.31
2023-10-31T04:57:24.279Z,101032.91
2023-10-31T04:59:51.715Z,101066.69
2023-10-31T05:02:19.027Z,101056.56
2023-10-31T05:04:46.895Z,101085.44
2023-10-31T05:07:14.286Z,101063.50
2023-10-31T05:09:45.717Z,101066.44
2023-10-31T05:12:14.413Z,101076.53
2023-10-31T05:14:42.079Z,101079.22
2023-10-31T05:17:09.425Z,101055.81
2023-10-31T05:19:36.593Z,101081.97
2023-10-31T05:22:04.154Z,101091.16
2023-10-31T05:24:33.487Z,101077.97
2023-10-31T05:27:00.877Z,101094.66
2023-10-31T05:29:28.194Z,101094.66
2023-10-31T05:31:55.562Z,101090.06
2023-10-31T05:34:22.830Z,101086.69
2023-10-31T05:36:50.281Z,101097.06
2023-10-31T05:39:17.538Z,101086.22
2023-10-31T05:41:44.780Z,101111.03
2023-10-31T05:44:12.252Z,101092.00
2023-10-31T05:46:43.217Z,101102.25
2023-10-31T05:49:11.289Z,101095.13
2023-10-31T05:51:38.511Z,101108.63
2023-10-31T05:54:08.449Z,101107.44
2023-10-31T05:56:35.709Z,101101.88
2023-10-31T05:59:02.994Z,101107.16
2023-10-31T06:01:30.495Z,101101.75
2023-10-31T06:03:57.859Z,101099.44
2023-10-31T06:06:25.045Z,101102.56
2023-10-31T06:08:52.480Z,101102.41
2023-10-31T06:11:19.872Z,101098.72
2023-10-31T06:13:49.168Z,101104.34
2023-10-31T06:16:16.580Z,101103.09
2023-10-31T06:18:43.783Z,101115.16
2023-10-31T06:21:10.976Z,101116.97
2023-10-31T06:23:38.938Z,101099.19
2023-10-31T06:26:06.412Z,101099.13
2023-10-31T06:28:39.273Z,101111.50
2023-10-31T06:31:09.764Z,101116.78
2023-10-31T06:33:37.014Z,101105.59
2023-10-31T06:36:04.721Z,101095.47
2023-10-31T06:38:32.269Z,101106.34
2023-10-31T06:41:00.154Z,101109.09
2023-10-31T06:43:30.394Z,101093.06
2023-10-31T06:46:01.796Z,101107.06
2023-10-31T06:48:29.266Z,101102.41
2023-10-31T06:50:56.512Z,101093.75
2023-10-31T06:53:23.756Z,101085.84
2023-10-31T06:55:52.445Z,101081.22
2023-10-31T06:58:19.856Z,101086.66
2023-10-31T07:00:47.276Z,101080.56
2023-10-31T07:03:16.891Z,101082.75
2023-10-31T07:05:44.213Z,101092.56
2023-10-31T07:08:11.649Z,101081.47
2023-10-31T07:10:39.076Z,101093.75
2023-10-31T07:13:07.249Z,101088.34
2023-10-31T07:15:40.111Z,101071.69
2023-10-31T07:18:10.547Z,101041.94
2023-10-31T07:20:37.852Z,101061.78
2023-10-31T07:23:05.229Z,101061.59
2023-10-31T07:25:32.636Z,101061.78
2023-10-31T07:27:59.971Z,101061.16
2023-10-31T07:30:28.172Z,101062.53
2023-10-31T07:32:55.662Z,101059.72
2023-10-31T07:35:23.025Z,101070.50
2023-10-31T07:37:50.272Z,101070.09
2023-10-31T07:40:17.664Z,101065.53
2023-10-31T07:42:44.960Z,101063.69
2023-10-31T07:45:13.601Z,101067.00
2023-10-31T07:47:43.104Z,101066.63
2023-10-31T07:50:11.400Z,101067.66
2023-10-31T07:52:38.635Z,101070.59
2023-10-31T07:55:06.460Z,101068.81
2023-10-31T07:57:33.751Z,101069.41
2023-10-31T08:00:01.804Z,101077.97
2023-10-31T08:02:39.652Z,101071.97
2023-10-31T08:05:08.657Z,101062.59
2023-10-31T08:07:36.524Z,101077.16
2023-10-31T08:10:05.228Z,101074.63
2023-10-31T08:12:32.882Z,101080.59
2023-10-31T08:15:01.111Z,101066.28
2023-10-31T08:17:28.396Z,101066.50
2023-10-31T08:19:55.776Z,101080.88
2023-10-31T08:22:23.955Z,101074.72
2023-10-31T08:24:51.345Z,101068.00
2023-10-31T08:27:18.974Z,101079.44
2023-10-31T08:29:46.514Z,101075.31
2023-10-31T08:32:13.948Z,101073.50
2023-10-31T08:34:41.580Z,101061.97
2023-10-31T08:37:09.081Z,101072.47
2023-10-31T08:39:36.415Z,101067.84
2023-10-31T08:42:07.282Z,101066.25
2023-10-31T08:44:34.867Z,101069.56
2023-10-31T08:47:02.455Z,101074.47
2023-10-31T08:49:30.192Z,101057.69
2023-10-31T08:51:57.502Z,101066.13
2023-10-31T08:54:24.882Z,101059.13
2023-10-31T08:56:52.165Z,101041.41
2023-10-31T08:59:19.604Z,101063.66
2023-10-31T09:01:47.182Z,101061.16
2023-10-31T09:04:14.850Z,101056.50
2023-10-31T09:06:42.043Z,101047.78
2023-10-31T09:09:11.517Z,101049.50
2023-10-31T09:11:39.161Z,101051.50
2023-10-31T09:14:06.777Z,101034.50
2023-10-31T09:16:34.121Z,101045.59
2023-10-31T09:19:01.762Z,101041.91
2023-10-31T09:21:29.240Z,101045.06
2023-10-31T09:23:56.555Z,101042.25
2023-10-31T09:26:23.942Z,101023.09
2023-10-31T09:28:51.647Z,101039.66
2023-10-31T09:31:19.440Z,101035.91
2023-10-31T09:33:47.121Z,101027.47
2023-10-31T09:36:15.684Z,101025.19
2023-10-31T09:38:43.224Z,101027.16
2023-10-31T09:41:10.596Z,101038.22
2023-10-31T09:43:38.606Z,101027.41
2023-10-31T09:46:06.615Z,101028.53
2023-10-31T09:48:34.351Z,101023.22
2023-10-31T09:51:01.923Z,101036.91
2023-10-31T09:53:30.099Z,101034.84
2023-10-31T09:55:58.768Z,101032.44
2023-10-31T09:58:26.134Z,101044.25
2023-10-31T10:00:53.351Z,101025.59
2023-10-31T10:03:20.838Z,101028.16
2023-10-31T10:05:48.392Z,101013.81
2023-10-31T10:08:16.179Z,101024.38
2023-10-31T10:10:43.837Z,101019.25
2023-10-31T10:13:12.063Z,101015.69
2023-10-31T10:15:53.490Z,101014.94
2023-10-31T10:18:30.466Z,101014.66
2023-10-31T10:21:01.324Z,101017.72
2023-10-31T10:23:28.936Z,101010.66
2023-10-31T10:25:57.133Z,101008.31
2023-10-31T10:28:27.942Z,101006.91
2023-10-31T10:30:55.303Z,101013.06
2023-10-31T10:33:23.149Z,101006.66
2023-10-31T10:35:50.581Z,101011.91
2023-10-31T10:38:19.078Z,100996.13
2023-10-31T10:40:48.602Z,100984.16
2023-10-31T10:43:26.102Z,100999.56
2023-10-31T10:45:57.049Z,100995.75
2023-10-31T10:48:28.335Z,100985.09
2023-10-31T10:51:05.455Z,100983.13
2023-10-31T10:53:37.241Z,100989.22
2023-10-31T10:56:07.060Z,100986.34
2023-10-31T10:58:54.597Z,100983.34
2023-10-31T11:01:22.031Z,100979.72
2023-10-31T11:03:49.299Z,100976.88
2023-10-31T11:06:16.665Z,100977.56
2023-10-31T11:08:44.271Z,100969.22
2023-10-31T11:11:11.884Z,100966.78
2023-10-31T11:13:39.368Z,100957.31
2023-10-31T11:16:12.740Z,100957.22
2023-10-31T11:18:40.397Z,100937.78
2023-10-31T11:21:07.685Z,100951.63
2023-10-31T11:23:35.028Z,100941.66
2023-10-31T11:26:02.579Z,100930.34
2023-10-31T11:28:30.425Z,100934.19
2023-10-31T11:31:02.270Z,100909.19
2023-10-31T11:33:29.890Z,100912.78
2023-10-31T11:36:04.500Z,100927.72
2023-10-31T11:38:36.202Z,100919.44
2023-10-31T11:41:04.652Z,100915.19
2023-10-31T11:43:41.070Z,100913.53
2023-10-31T11:46:22.193Z,100922.38
2023-10-31T11:48:53.149Z,100893.59
2023-10-31T11:51:21.001Z,100909.44
2023-10-31T11:53:50.785Z,100907.81
2023-10-31T11:56:21.213Z,100898.69
2023-10-31T11:59:02.743Z,100896.66
2023-10-31T12:01:30.241Z,100897.16
2023-10-31T12:03:57.847Z,100883.88
2023-10-31T12:06:25.235Z,100883.94
2023-10-31T12:08:52.628Z,100880.75
2023-10-31T12:11:21.947Z,100870.69
2023-10-31T12:14:03.119Z,100884.44
2023-10-31T12:16:32.305Z,100880.66
2023-10-31T12:19:04.042Z,100866.13
2023-10-31T12:21:38.102Z,100878.88
2023-10-31T12:24:09.838Z,100873.16
2023-10-31T12:26:37.285Z,100860.53
2023-10-31T12:29:20.897Z,100875.44
2023-10-31T12:31:53.715Z,100862.47
2023-10-31T12:34:22.896Z,100854.84
2023-10-31T12:36:51.624Z,100870.16
2023-10-31T12:39:22.185Z,100855.41
2023-10-31T12:41:49.568Z,100870.63
2023-10-31T12:44:20.247Z,100871.94
2023-10-31T12:46:48.083Z,100875.88
2023-10-31T12:49:19.400Z,100874.00
2023-10-31T12:52:03.268Z,100868.22
2023-10-31T12:54:31.594Z,100859.00
2023-10-31T12:57:16.805Z,100861.94
2023-10-31T12:59:44.173Z,100864.09
2023-10-31T13:02:12.462Z,100858.47
2023-10-31T13:04:40.880Z,100851.91
2023-10-31T13:07:09.183Z,100862.34
2023-10-31T13:09:38.268Z,100841.03
2023-10-31T13:12:07.109Z,100838.97
2023-10-31T13:14:35.061Z,100850.44
2023-10-31T13:17:04.580Z,100849.19
2023-10-31T13:19:32.209Z,100855.13
2023-10-31T13:21:59.620Z,100838.34
2023-10-31T13:24:27.001Z,100853.66
2023-10-31T13:26:54.265Z,100857.84
2023-10-31T13:29:22.208Z,100842.81
2023-10-31T13:31:49.671Z,100850.75
2023-10-31T13:34:17.042Z,100848.97
2023-10-31T13:36:45.822Z,100855.25
2023-10-31T13:39:13.525Z,100834.25
2023-10-31T13:41:40.792Z,100834.78
2023-10-31T13:44:08.262Z,100842.63
2023-10-31T13:46:35.760Z,100838.88
2023-10-31T13:49:04.785Z,100848.44
2023-10-31T13:51:32.117Z,100848.84
2023-10-31T13:53:59.939Z,100844.56
2023-10-31T13:56:27.590Z,100843.03
2023-10-31T13:58:54.972Z,100843.84
2023-10-31T14:01:26.304Z,100840.22
2023-10-31T14:03:54.004Z,100833.81
2023-10-31T14:06:21.513Z,100833.66
2023-10-31T14:08:49.036Z,100835.84
2023-10-31T14:11:16.818Z,100820.81
2023-10-31T14:13:46.057Z,100824.94
2023-10-31T14:16:13.723Z,100822.03
2023-10-31T14:18:42.205Z,100829.00
2023-10-31T14:21:12.415Z,100829.88
2023-10-31T14:23:39.724Z,100830.81
2023-10-31T14:26:07.296Z,100831.81
2023-10-31T14:28:35.000Z,100829.75
2023-10-31T14:31:02.431Z,100826.84
2023-10-31T14:33:31.383Z,100833.91
2023-10-31T14:36:00.189Z,100840.22
2023-10-31T14:38:27.427Z,100826.09
2023-10-31T14:40:54.737Z,100834.00
2023-10-31T14:43:22.075Z,100829.81
2023-10-31T14:45:49.520Z,100830.78
2023-10-31T14:48:16.840Z,100831.72
2023-10-31T14:50:44.074Z,100818.09
2023-10-31T14:53:11.540Z,100820.97
2023-10-31T14:55:38.849Z,100823.63
2023-10-31T14:58:06.131Z,100814.19
2023-10-31T15:00:33.450Z,100824.84
2023-10-31T15:03:00.939Z,100826.41
2023-10-31T15:05:28.551Z,100822.75
2023-10-31T15:07:56.962Z,100823.41
2023-10-31T15:10:24.286Z,100835.97
2023-10-31T15:12:52.892Z,100833.34
2023-10-31T15:15:20.206Z,100833.09
2023-10-31T15:17:49.155Z,100836.38
2023-10-31T15:20:17.001Z,100836.97
2023-10-31T15:22:44.683Z,100843.91
2023-10-31T15:25:12.122Z,100829.16
2023-10-31T15:27:39.837Z,100833.56
2023-10-31T15:30:10.287Z,100831.47
2023-10-31T15:32:38.255Z,100822.53
2023-10-31T15:35:07.416Z,100832.34
2023-10-31T15:37:35.099Z,100821.69
2023-10-31T15:40:02.523Z,100826.47
2023-10-31T15:42:30.031Z,100825.94
2023-10-31T15:44:57.357Z,100839.00
2023-10-31T15:47:24.837Z,100833.81
2023-10-31T15:49:52.338Z,100843.94
2023-10-31T15:52:19.776Z,100828.56
2023-10-31T15:54:47.022Z,100839.97
2023-10-31T15:57:18.596Z,100821.59
2023-10-31T15:59:45.994Z,100830.78
2023-10-31T16:02:13.263Z,100828.56
2023-10-31T16:04:40.812Z,100825.00
2023-10-31T16:07:10.828Z,100843.50
2023-10-31T16:09:38.692Z,100820.50
2023-10-31T16:12:08.234Z,100836.72
2023-10-31T16:14:36.579Z,100833.41
2023-10-31T16:17:12.459Z,100836.13
2023-10-31T16:19:44.320Z,100831.19
2023-10-31T16:22:14.594Z,100826.06
2023-10-31T16:24:42.449Z,100831.06
2023-10-31T16:27:09.845Z,100833.59
2023-10-31T16:29:37.306Z,100828.97
2023-10-31T16:32:06.843Z,100831.88
2023-10-31T16:34:34.378Z,100830.91
2023-10-31T16:37:01.747Z,100824.69
2023-10-31T16:39:30.246Z,100823.09
2023-10-31T16:41:59.114Z,100821.13
2023-10-31T16:44:26.467Z,100817.50
2023-10-31T16:46:53.756Z,100820.38
2023-10-31T16:49:21.133Z,100816.47
2023-10-31T16:51:48.434Z,100815.81
2023-10-31T16:54:15.799Z,100811.09
2023-10-31T16:56:43.068Z,100807.63
2023-10-31T16:59:10.491Z,100807.84
2023-10-31T17:01:38.259Z,100807.66
2023-10-31T17:04:06.028Z,100798.13
2023-10-31T17:06:36.121Z,100802.69
2023-10-31T17:09:03.860Z,100792.09
2023-10-31T17:11:31.815Z,100791.69
2023-10-31T17:13:59.430Z,100791.41
2023-10-31T17:16:26.695Z,100786.06
2023-10-31T17:18:54.084Z,100787.84
2023-10-31T17:21:21.467Z,100786.47
2023-10-31T17:23:48.949Z,100794.00
2023-10-31T17:26:16.486Z,100789.81
2023-10-31T17:28:43.944Z,100787.53
2023-10-31T17:31:12.493Z,100784.94
2023-10-31T17:33:41.566Z,100782.84
2023-10-31T17:36:10.901Z,100768.03
2023-10-31T17:38:38.441Z,100780.31
2023-10-31T17:41:05.863Z,100782.00
2023-10-31T17:43:33.192Z,100788.72
2023-10-31T17:46:00.935Z,100781.41
2023-10-31T17:48:28.427Z,100775.25
2023-10-31T17:50:56.661Z,100778.09
2023-10-31T17:53:24.010Z,100789.59
2023-10-31T17:55:51.293Z,100761.94
2023-10-31T17:58:18.660Z,100787.75
2023-10-31T18:00:45.938Z,100785.81
2023-10-31T18:03:13.988Z,100794.56
2023-10-31T18:05:41.390Z,100803.28
2023-10-31T18:08:09.143Z,100802.50
2023-10-31T18:10:37.116Z,100801.69
2023-10-31T18:13:05.340Z,100777.06
2023-10-31T18:15:32.603Z,100833.63
2023-10-31T18:18:00.064Z,100778.00
2023-10-31T18:20:27.485Z,100779.09
2023-10-31T18:22:55.010Z,100805.72
2023-10-31T18:25:22.392Z,100775.53
2023-10-31T18:27:49.908Z,100785.63
2023-10-31T18:30:17.395Z,100775.53
2023-10-31T18:32:44.784Z,100791.75
2023-10-31T18:35:12.359Z,100801.31
2023-10-31T18:37:39.801Z,100811.41
2023-10-31T18:40:09.898Z,100767.50
2023-10-31T18:42:38.694Z,100773.38
2023-10-31T18:45:06.336Z,100775.31
2023-10-31T18:47:35.361Z,100772.28
2023-10-31T18:50:04.933Z,100765.56
2023-10-31T18:52:33.876Z,100775.06
2023-10-31T18:55:02.561Z,100771.44
2023-10-31T18:57:33.656Z,100766.97
2023-10-31T19:00:06.610Z,100758.59
2023-10-31T19:02:38.154Z,100768.41
2023-10-31T19:05:05.927Z,100764.19
2023-10-31T19:07:38.881Z,100749.94
2023-10-31T19:10:11.300Z,100741.28
2023-10-31T19:12:39.589Z,100752.78
2023-10-31T19:15:07.587Z,100761.97
2023-10-31T19:17:35.979Z,100756.94
2023-10-31T19:20:04.874Z,100760.03
2023-10-31T19:22:32.883Z,100767.84
2023-10-31T19:25:00.230Z,100775.09
2023-10-31T19:27:27.903Z,100746.88
2023-10-31T19:29:56.059Z,100762.25
2023-10-31T19:32:23.403Z,100742.97
2023-10-31T19:34:52.125Z,100745.50
2023-10-31T19:37:19.830Z,100741.03
2023-10-31T19:39:47.195Z,100738.50
2023-10-31T19:42:14.517Z,100723.41
2023-10-31T19:44:41.800Z,100739.88
2023-10-31T19:47:11.336Z,100737.38
2023-10-31T19:49:39.157Z,100743.53
2023-10-31T19:52:06.953Z,100737.44
2023-10-31T19:54:34.593Z,100744.66
2023-10-31T19:57:05.120Z,100758.06
2023-10-31T19:59:39.638Z,100745.81
2023-10-31T20:02:07.289Z,100734.63
2023-10-31T20:04:34.765Z,100753.34
2023-10-31T20:07:02.499Z,100736.03
2023-10-31T20:09:29.946Z,100758.09
2023-10-31T20:11:57.477Z,100733.22
2023-10-31T20:14:24.824Z,100728.22
2023-10-31T20:16:52.195Z,100735.16
2023-10-31T20:19:19.488Z,100724.00
2023-10-31T20:21:48.629Z,100729.88
2023-10-31T20:24:15.879Z,100737.41
2023-10-31T20:26:43.185Z,100734.63
2023-10-31T20:29:10.645Z,100727.31
2023-10-31T20:31:38.014Z,100733.22
2023-10-31T20:34:06.258Z,100745.75
2023-10-31T20:36:33.692Z,100725.09
2023-10-31T20:39:01.752Z,100725.13
2023-10-31T20:41:29.489Z,100727.34
2023-10-31T20:43:57.090Z,100723.69
2023-10-31T20:46:28.755Z,100692.44
2023-10-31T20:48:57.160Z,100711.69
2023-10-31T20:51:25.010Z,100736.53
2023-10-31T20:53:52.978Z,100706.94
2023-10-31T20:56:20.649Z,100713.09
2023-10-31T20:58:48.135Z,100709.47
2023-10-31T21:01:15.620Z,100724.81
2023-10-31T21:03:43.408Z,100675.69
2023-10-31T21:06:10.669Z,100692.97
2023-10-31T21:08:38.514Z,100707.22
2023-10-31T21:11:06.558Z,100697.72
2023-10-31T21:13:37.514Z,100703.88
2023-10-31T21:16:05.928Z,100706.66
2023-10-31T21:18:34.815Z,100717.56
2023-10-31T21:21:03.030Z,100716.69
2023-10-31T21:23:31.163Z,100699.94
2023-10-31T21:25:58.886Z,100718.38
2023-10-31T21:28:28.006Z,100693.22
2023-10-31T21:30:56.216Z,100684.03
2023-10-31T21:33:25.865Z,100705.50
2023-10-31T21:35:54.718Z,100691.28
2023-10-31T21:38:22.011Z,100699.09
2023-10-31T21:40:49.314Z,100673.41
2023-10-31T21:43:16.591Z,100666.69
2023-10-31T21:45:44.064Z,100676.47
2023-10-31T21:48:11.807Z,100679.25
2023-10-31T21:50:39.288Z,100675.88
2023-10-31T21:53:06.605Z,100677.84
2023-10-31T21:55:33.837Z,100665.56
2023-10-31T21:58:01.183Z,100678.13
2023-10-31T22:00:28.473Z,100646.28
2023-10-31T22:02:55.871Z,100660.53
2023-10-31T22:05:23.380Z,100668.03
2023-10-31T22:07:50.777Z,100688.63
2023-10-31T22:10:18.407Z,100654.41
2023-10-31T22:12:45.774Z,100657.16
2023-10-31T22:15:13.018Z,100656.34
2023-10-31T22:17:40.545Z,100658.28
2023-10-31T22:20:08.613Z,100653.53
2023-10-31T22:22:35.968Z,100644.59
2023-10-31T22:25:04.316Z,100640.97
2023-10-31T22:27:31.669Z,100656.31
2023-10-31T22:29:59.018Z,100635.13
2023-10-31T22:32:26.335Z,100625.63
2023-10-31T22:34:53.577Z,100627.00
2023-10-31T22:37:20.862Z,100653.47
2023-10-31T22:39:48.089Z,100644.59
2023-10-31T22:42:15.449Z,100622.25
2023-10-31T22:44:42.892Z,100642.63
2023-10-31T22:47:10.128Z,100622.28
2023-10-31T22:49:37.532Z,100628.34
2023-10-31T22:52:05.088Z,100628.59
2023-10-31T22:54:32.440Z,100624.41
2023-10-31T22:56:59.599Z,100640.06
2023-10-31T22:59:26.996Z,100622.81
2023-10-31T23:01:57.622Z,100633.94
2023-10-31T23:04:25.256Z,100640.31
2023-10-31T23:06:55.682Z,100636.97
2023-10-31T23:09:23.265Z,100618.53
2023-10-31T23:11:50.407Z,100621.34
2023-10-31T23:14:17.806Z,100611.31
2023-10-31T23:16:45.069Z,100607.94
2023-10-31T23:19:12.615Z,100625.50
2023-10-31T23:21:40.392Z,100586.75
2023-10-31T23:24:08.345Z,100601.81
2023-10-31T23:26:35.585Z,100602.63
2023-10-31T23:29:06.363Z,100591.78
2023-10-31T23:31:33.805Z,100590.09
2023-10-31T23:34:00.989Z,100578.69
2023-10-31T23:36:28.306Z,100588.19
2023-10-31T23:38:55.635Z,100576.47
2023-10-31T23:41:22.935Z,100575.34
2023-10-31T23:43:50.337Z,100578.13
2023-10-31T23:46:17.774Z,100578.16
2023-10-31T23:48:44.951Z,100568.13
2023-10-31T23:51:12.181Z,100564.78
2023-10-31T23:53:39.572Z,100562.25
2023-10-31T23:56:07.319Z,100559.75
2023-10-31T23:58:36.236Z,100553.59
